createdAt,value
2018-04-27T00:00:33.437Z,0
2018-04-27T00:01:41.503Z,0
2018-04-27T00:02:49.571Z,0
2018-04-27T00:03:57.623Z,0
2018-04-27T00:05:05.719Z,0
2018-04-27T00:06:13.749Z,0
2018-04-27T00:07:21.800Z,0
2018-04-27T00:08:29.855Z,0
2018-04-27T00:09:37.923Z,0
2018-04-27T00:10:45.967Z,0
2018-04-27T00:11:54.035Z,0
2018-04-27T00:13:02.096Z,0
2018-04-27T00:14:10.161Z,0
2018-04-27T00:15:18.528Z,0
2018-04-27T00:16:26.271Z,0
2018-04-27T00:17:34.314Z,0
2018-04-27T00:18:42.394Z,0
2018-04-27T00:19:50.453Z,0
2018-04-27T00:20:58.502Z,0
2018-04-27T00:22:06.564Z,0
2018-04-27T00:23:14.599Z,0
2018-04-27T00:24:22.665Z,0
2018-04-27T00:25:30.740Z,0
2018-04-27T00:26:38.783Z,0
2018-04-27T00:27:46.846Z,0
2018-04-27T00:28:54.885Z,0
2018-04-27T00:30:02.968Z,0
2018-04-27T00:31:11.020Z,0
2018-04-27T00:32:19.091Z,0
2018-04-27T00:33:27.143Z,0
2018-04-27T00:34:35.186Z,0
2018-04-27T00:35:43.265Z,0
2018-04-27T00:36:51.307Z,0
2018-04-27T00:37:59.372Z,0
2018-04-27T00:39:07.432Z,0
2018-04-27T00:40:15.465Z,0
2018-04-27T00:41:23.553Z,0
2018-04-27T00:42:31.613Z,0
2018-04-27T00:43:39.670Z,0
2018-04-27T00:44:47.731Z,0
2018-04-27T00:45:55.782Z,0
2018-04-27T00:47:03.845Z,0
2018-04-27T00:48:11.895Z,0
2018-04-27T00:49:19.945Z,0
2018-04-27T00:50:28.026Z,0
2018-04-27T00:51:36.076Z,0
2018-04-27T00:52:44.136Z,0
2018-04-27T00:53:52.197Z,0
2018-04-27T00:55:00.247Z,0
2018-04-27T00:56:08.310Z,0
2018-04-27T00:57:16.382Z,0
2018-04-27T00:58:24.422Z,0
2018-04-27T00:59:32.475Z,0
2018-04-27T01:00:40.547Z,0
2018-04-27T01:01:48.601Z,0
2018-04-27T01:02:56.680Z,0
2018-04-27T01:04:04.704Z,0
2018-04-27T01:05:12.793Z,0
2018-04-27T01:06:20.839Z,0
2018-04-27T01:07:28.902Z,0
2018-04-27T01:08:36.953Z,0
2018-04-27T01:09:44.985Z,0
2018-04-27T01:10:53.083Z,0
2018-04-27T01:12:01.129Z,0
2018-04-27T01:13:09.195Z,0
2018-04-27T01:14:17.243Z,0
2018-04-27T01:15:25.282Z,0
2018-04-27T01:16:33.367Z,0
2018-04-27T01:17:41.427Z,0
2018-04-27T01:18:49.486Z,0
2018-04-27T01:19:57.547Z,0
2018-04-27T01:21:05.590Z,0
2018-04-27T01:22:13.659Z,0
2018-04-27T01:23:21.719Z,0
2018-04-27T01:24:29.776Z,0
2018-04-27T01:25:37.835Z,0
2018-04-27T01:26:45.889Z,0
2018-04-27T01:27:53.956Z,0
2018-04-27T01:29:02.018Z,0
2018-04-27T01:30:10.060Z,0
2018-04-27T01:31:18.119Z,0
2018-04-27T01:32:26.184Z,0
2018-04-27T01:33:34.270Z,0
2018-04-27T01:34:42.315Z,0
2018-04-27T01:35:50.360Z,0
2018-04-27T01:36:58.424Z,0
2018-04-27T01:38:06.486Z,0
2018-04-27T01:39:14.544Z,0
2018-04-27T01:40:22.614Z,0
2018-04-27T01:41:30.668Z,0
2018-04-27T01:42:38.708Z,0
2018-04-27T01:43:46.775Z,0
2018-04-27T01:44:54.793Z,0
2018-04-27T01:46:02.878Z,0
2018-04-27T01:47:10.941Z,0
2018-04-27T01:48:19.004Z,0
2018-04-27T01:49:27.076Z,0
2018-04-27T01:50:35.092Z,0
2018-04-27T01:51:43.190Z,0
2018-04-27T01:52:51.250Z,0
2018-04-27T01:53:59.293Z,0
2018-04-27T01:55:07.367Z,0
2018-04-27T01:56:15.393Z,0
2018-04-27T01:57:23.483Z,0
2018-04-27T01:58:31.525Z,0
2018-04-27T01:59:39.586Z,0
2018-04-27T02:00:47.645Z,0
2018-04-27T02:01:55.702Z,0
2018-04-27T02:03:03.768Z,0
2018-04-27T02:04:11.849Z,0
2018-04-27T02:05:19.887Z,0
2018-04-27T02:06:27.993Z,0
2018-04-27T02:07:36.003Z,0
2018-04-27T02:08:44.065Z,0
2018-04-27T02:09:52.113Z,0
2018-04-27T02:11:00.169Z,0
2018-04-27T02:12:08.238Z,0
2018-04-27T02:13:16.301Z,0
2018-04-27T02:14:24.361Z,0
2018-04-27T02:15:32.407Z,0
2018-04-27T02:16:40.472Z,0
2018-04-27T02:17:48.525Z,0
2018-04-27T02:18:56.590Z,0
2018-04-27T02:20:04.625Z,0
2018-04-27T02:21:12.703Z,0
2018-04-27T02:22:20.763Z,0
2018-04-27T02:23:28.821Z,0
2018-04-27T02:24:36.921Z,0
2018-04-27T02:25:44.916Z,0
2018-04-27T02:26:52.985Z,0
2018-04-27T02:28:01.058Z,0
2018-04-27T02:29:09.108Z,0
2018-04-27T02:30:17.170Z,0
2018-04-27T02:31:25.209Z,0
2018-04-27T02:32:33.293Z,0
2018-04-27T02:33:41.346Z,0
2018-04-27T02:34:49.408Z,0
2018-04-27T02:35:57.467Z,0
2018-04-27T02:37:05.497Z,0
2018-04-27T02:38:13.632Z,0
2018-04-27T02:39:21.636Z,0
2018-04-27T02:40:29.710Z,0
2018-04-27T02:41:37.750Z,0
2018-04-27T02:42:45.820Z,0
2018-04-27T02:43:53.873Z,0
2018-04-27T02:45:01.949Z,0
2018-04-27T02:46:10.000Z,0
2018-04-27T02:47:18.061Z,0
2018-04-27T02:48:26.109Z,0
2018-04-27T02:49:34.167Z,0
2018-04-27T02:50:42.215Z,0
2018-04-27T02:51:50.273Z,0
2018-04-27T02:52:58.348Z,0
2018-04-27T02:54:06.402Z,0
2018-04-27T02:55:14.456Z,0
2018-04-27T02:56:22.522Z,0
2018-04-27T02:57:30.585Z,0
2018-04-27T02:58:38.639Z,0
2018-04-27T02:59:46.693Z,0
2018-04-27T03:00:54.721Z,0
2018-04-27T03:02:02.851Z,0
2018-04-27T03:03:10.872Z,0
2018-04-27T03:04:18.924Z,0
2018-04-27T03:05:26.997Z,0
2018-04-27T03:06:35.020Z,0
2018-04-27T03:07:43.096Z,0
2018-04-27T03:08:51.188Z,0
2018-04-27T03:09:59.221Z,0
2018-04-27T03:11:07.280Z,0
2018-04-27T03:12:15.320Z,0
2018-04-27T03:13:23.375Z,0
2018-04-27T03:14:31.459Z,0
2018-04-27T03:15:39.502Z,0
2018-04-27T03:16:47.553Z,0
2018-04-27T03:17:55.613Z,0
2018-04-27T03:19:03.693Z,0
2018-04-27T03:20:11.745Z,0
2018-04-27T03:21:19.795Z,0
2018-04-27T03:22:27.856Z,0
2018-04-27T03:23:35.913Z,0
2018-04-27T03:24:43.970Z,0
2018-04-27T03:25:52.031Z,0
2018-04-27T03:27:00.097Z,0
2018-04-27T03:28:08.182Z,0
2018-04-27T03:29:16.200Z,0
2018-04-27T03:30:24.260Z,0
2018-04-27T03:31:32.317Z,0
2018-04-27T03:32:40.373Z,0
2018-04-27T03:33:48.447Z,0
2018-04-27T03:34:56.496Z,0
2018-04-27T03:36:04.547Z,0
2018-04-27T03:37:12.612Z,0
2018-04-27T03:38:20.692Z,0
2018-04-27T03:39:28.742Z,0
2018-04-27T03:40:36.795Z,0
2018-04-27T03:41:44.816Z,0
2018-04-27T03:42:52.902Z,4
2018-04-27T03:44:00.971Z,4
2018-04-27T03:45:09.026Z,0
2018-04-27T03:46:17.075Z,4
2018-04-27T03:47:25.112Z,4
2018-04-27T03:48:33.185Z,4
2018-04-27T03:49:41.255Z,8
2018-04-27T03:50:49.316Z,8
2018-04-27T03:51:57.447Z,8
2018-04-27T03:53:05.419Z,12
2018-04-27T03:54:14.493Z,16
2018-04-27T03:55:21.550Z,20
2018-04-27T03:56:29.605Z,20
2018-04-27T03:57:37.666Z,24
2018-04-27T03:58:45.739Z,32
2018-04-27T03:59:54.280Z,36
2018-04-27T04:01:01.828Z,40
2018-04-27T04:02:09.898Z,52
2018-04-27T04:03:17.957Z,56
2018-04-27T04:04:26.024Z,64
2018-04-27T04:05:34.071Z,72
2018-04-27T04:06:42.108Z,84
2018-04-27T04:07:50.186Z,96
2018-04-27T04:08:58.238Z,112
2018-04-27T04:10:06.297Z,124
2018-04-27T04:11:14.358Z,140
2018-04-27T04:12:22.421Z,152
2018-04-27T04:13:30.476Z,172
2018-04-27T04:14:38.525Z,192
2018-04-27T04:15:46.599Z,216
2018-04-27T04:16:54.619Z,240
2018-04-27T04:18:02.704Z,268
2018-04-27T04:19:10.765Z,296
2018-04-27T04:20:18.823Z,320
2018-04-27T04:21:26.884Z,348
2018-04-27T04:22:34.910Z,384
2018-04-27T04:23:43.002Z,416
2018-04-27T04:24:51.086Z,452
2018-04-27T04:25:59.115Z,488
2018-04-27T04:27:07.216Z,524
2018-04-27T04:28:15.195Z,556
2018-04-27T04:29:23.282Z,588
2018-04-27T04:30:31.863Z,620
2018-04-27T04:31:39.809Z,652
2018-04-27T04:32:47.456Z,684
2018-04-27T04:33:55.513Z,716
2018-04-27T04:35:03.599Z,756
2018-04-27T04:36:11.722Z,804
2018-04-27T04:37:19.694Z,856
2018-04-27T04:38:27.741Z,904
2018-04-27T04:39:35.796Z,964
2018-04-27T04:40:43.859Z,1028
2018-04-27T04:41:51.913Z,1068
2018-04-27T04:42:59.972Z,1084
2018-04-27T04:44:08.038Z,1092
2018-04-27T04:45:16.102Z,1108
2018-04-27T04:46:24.167Z,1148
2018-04-27T04:47:32.217Z,1196
2018-04-27T04:48:40.291Z,1244
2018-04-27T04:49:48.326Z,1304
2018-04-27T04:50:56.374Z,1376
2018-04-27T04:52:04.624Z,1436
2018-04-27T04:53:12.625Z,1508
2018-04-27T04:54:20.554Z,1584
2018-04-27T04:55:28.612Z,1676
2018-04-27T04:56:36.676Z,1772
2018-04-27T04:57:44.731Z,1840
2018-04-27T04:58:52.799Z,2160
2018-04-27T05:00:00.843Z,3008
2018-04-27T05:01:09.568Z,2176
2018-04-27T05:02:17.634Z,1992
2018-04-27T05:03:25.645Z,2156
2018-04-27T05:04:33.520Z,2288
2018-04-27T05:05:41.403Z,2348
2018-04-27T05:06:50.642Z,2344
2018-04-27T05:07:57.817Z,2288
2018-04-27T05:09:05.913Z,2256
2018-04-27T05:10:13.728Z,2344
2018-04-27T05:11:21.979Z,2412
2018-04-27T05:12:29.478Z,2424
2018-04-27T05:13:37.529Z,2440
2018-04-27T05:14:45.596Z,2496
2018-04-27T05:15:53.666Z,2540
2018-04-27T05:17:01.719Z,2572
2018-04-27T05:18:09.781Z,2680
2018-04-27T05:19:17.840Z,2588
2018-04-27T05:20:25.904Z,2568
2018-04-27T05:21:33.952Z,2600
2018-04-27T05:22:42.001Z,2600
2018-04-27T05:23:50.059Z,2764
2018-04-27T05:24:58.117Z,2684
2018-04-27T05:26:06.180Z,2824
2018-04-27T05:27:14.245Z,3064
2018-04-27T05:28:22.303Z,2948
2018-04-27T05:29:30.356Z,3148
2018-04-27T05:30:38.413Z,3052
2018-04-27T05:31:46.475Z,3284
2018-04-27T05:32:54.533Z,3264
2018-04-27T05:34:02.593Z,3644
2018-04-27T05:35:10.652Z,3548
2018-04-27T05:36:18.712Z,3404
2018-04-27T05:37:26.766Z,3428
2018-04-27T05:38:34.813Z,3100
2018-04-27T05:39:42.898Z,3140
2018-04-27T05:40:50.943Z,3200
2018-04-27T05:41:59.008Z,3240
2018-04-27T05:43:07.090Z,3248
2018-04-27T05:44:15.098Z,3420
2018-04-27T05:45:23.189Z,4380
2018-04-27T05:46:31.237Z,3948
2018-04-27T05:47:39.287Z,3528
2018-04-27T05:48:47.368Z,3488
2018-04-27T05:49:55.392Z,3408
2018-04-27T05:51:03.479Z,3560
2018-04-27T05:52:11.546Z,3568
2018-04-27T05:53:19.602Z,3576
2018-04-27T05:54:27.663Z,3836
2018-04-27T05:55:35.780Z,3612
2018-04-27T05:56:43.767Z,3660
2018-04-27T05:57:51.831Z,3980
2018-04-27T05:58:59.882Z,3736
2018-04-27T06:00:07.945Z,3716
2018-04-27T06:01:15.995Z,3924
2018-04-27T06:02:24.069Z,7752
2018-04-27T06:03:32.126Z,10944
2018-04-27T06:04:40.271Z,6596
2018-04-27T06:05:48.234Z,4592
2018-04-27T06:06:56.316Z,4196
2018-04-27T06:08:04.359Z,4316
2018-04-27T06:09:12.423Z,11168
2018-04-27T06:10:20.473Z,14524
2018-04-27T06:11:28.526Z,6932
2018-04-27T06:12:36.596Z,8284
2018-04-27T06:13:44.659Z,7132
2018-04-27T06:14:52.728Z,12104
2018-04-27T06:16:00.782Z,9608
2018-04-27T06:17:08.827Z,13672
2018-04-27T06:18:16.895Z,8564
2018-04-27T06:19:24.925Z,7500
2018-04-27T06:20:33.013Z,7468
2018-04-27T06:21:41.072Z,8596
2018-04-27T06:22:49.138Z,7316
2018-04-27T06:23:57.197Z,6724
2018-04-27T06:25:05.229Z,4704
2018-04-27T06:26:13.318Z,4784
2018-04-27T06:27:21.383Z,4720
2018-04-27T06:28:29.443Z,5228
2018-04-27T06:29:37.504Z,5260
2018-04-27T06:30:45.547Z,5384
2018-04-27T06:31:53.702Z,5736
2018-04-27T06:33:04.804Z,7088
2018-04-27T06:34:09.743Z,9384
2018-04-27T06:35:17.806Z,10672
2018-04-27T06:36:25.867Z,6472
2018-04-27T06:37:33.915Z,8112
2018-04-27T06:38:41.998Z,6564
2018-04-27T06:39:50.032Z,5324
2018-04-27T06:40:58.105Z,5208
2018-04-27T06:42:06.168Z,5144
2018-04-27T06:43:14.246Z,7696
2018-04-27T06:44:22.286Z,7172
2018-04-27T06:45:30.353Z,9804
2018-04-27T06:46:38.414Z,6924
2018-04-27T06:47:46.459Z,5788
2018-04-27T06:48:54.526Z,5896
2018-04-27T06:50:02.594Z,6380
2018-04-27T06:51:10.681Z,6680
2018-04-27T06:52:18.717Z,6940
2018-04-27T06:53:26.777Z,6868
2018-04-27T06:54:34.815Z,6364
2018-04-27T06:55:42.904Z,6276
2018-04-27T06:56:50.967Z,5840
2018-04-27T06:57:59.021Z,5876
2018-04-27T06:59:07.088Z,6004
2018-04-27T07:00:15.121Z,6076
2018-04-27T07:01:23.201Z,5656
2018-04-27T07:02:31.267Z,5884
2018-04-27T07:03:39.367Z,6040
2018-04-27T07:04:47.386Z,6456
2018-04-27T07:05:55.438Z,6356
2018-04-27T07:07:03.520Z,5828
2018-04-27T07:08:11.580Z,5440
2018-04-27T07:09:19.647Z,5976
2018-04-27T07:10:27.697Z,6220
2018-04-27T07:11:35.774Z,5868
2018-04-27T07:12:43.826Z,5908
2018-04-27T07:13:51.879Z,5976
2018-04-27T07:14:59.951Z,6400
2018-04-27T07:16:08.011Z,8036
2018-04-27T07:17:16.072Z,10328
2018-04-27T07:18:24.138Z,8772
2018-04-27T07:19:32.193Z,13744
2018-04-27T07:20:40.264Z,20864
2018-04-27T07:21:48.322Z,23424
2018-04-27T07:22:56.385Z,26912
2018-04-27T07:24:04.424Z,34400
2018-04-27T07:25:12.515Z,38080
2018-04-27T07:26:20.559Z,36672
2018-04-27T07:27:28.634Z,34752
2018-04-27T07:28:36.704Z,27424
2018-04-27T07:29:44.738Z,18496
2018-04-27T07:30:52.830Z,10888
2018-04-27T07:32:00.901Z,7416
2018-04-27T07:33:08.977Z,7752
2018-04-27T07:34:17.074Z,8024
2018-04-27T07:35:25.064Z,8992
2018-04-27T07:36:33.160Z,22496
2018-04-27T07:37:41.224Z,33376
2018-04-27T07:38:49.287Z,28544
2018-04-27T07:39:57.347Z,18976
2018-04-27T07:41:05.385Z,13508
2018-04-27T07:42:13.517Z,8140
2018-04-27T07:43:21.546Z,14040
2018-04-27T07:44:29.610Z,26720
2018-04-27T07:45:37.684Z,19264
2018-04-27T07:46:45.755Z,24384
2018-04-27T07:47:53.805Z,33088
2018-04-27T07:49:01.876Z,44448
2018-04-27T07:50:09.946Z,46432
2018-04-27T07:51:17.995Z,40736
2018-04-27T07:52:26.068Z,45248
2018-04-27T07:53:34.143Z,50944
2018-04-27T07:54:42.207Z,56608
2018-04-27T07:55:50.265Z,59168
2018-04-27T07:56:58.340Z,61952
2018-04-27T07:58:06.410Z,58016
2018-04-27T07:59:14.467Z,54336
2018-04-27T08:00:22.524Z,54784
2018-04-27T08:01:30.612Z,59648
2018-04-27T08:02:38.683Z,63520
2018-04-27T08:03:46.749Z,64768
2018-04-27T08:04:54.791Z,64384
2018-04-27T08:06:02.889Z,67808
2018-04-27T08:07:10.995Z,72000
2018-04-27T08:08:19.039Z,70016
2018-04-27T08:09:27.100Z,71840
2018-04-27T08:10:35.154Z,69568
2018-04-27T08:11:43.248Z,65984
2018-04-27T08:12:51.323Z,65024
2018-04-27T08:13:59.425Z,61440
2018-04-27T08:15:07.472Z,67712
2018-04-27T08:16:15.528Z,71456
2018-04-27T08:17:23.619Z,73024
2018-04-27T08:18:31.673Z,62816
2018-04-27T08:19:39.764Z,52320
2018-04-27T08:20:47.827Z,57152
2018-04-27T08:21:55.910Z,63392
2018-04-27T08:23:03.984Z,63136
2018-04-27T08:24:12.074Z,62944
2018-04-27T08:25:20.151Z,71808
2018-04-27T08:26:28.207Z,76000
2018-04-27T08:27:36.287Z,72992
2018-04-27T08:28:44.370Z,75648
2018-04-27T08:29:52.446Z,80512
2018-04-27T08:31:00.505Z,73056
2018-04-27T08:32:08.586Z,67456
2018-04-27T08:33:16.675Z,70752
2018-04-27T08:34:24.727Z,70656
2018-04-27T08:35:32.818Z,69568
2018-04-27T08:36:40.889Z,69952
2018-04-27T08:37:48.968Z,73472
2018-04-27T08:38:57.047Z,79008
2018-04-27T08:40:05.107Z,76480
2018-04-27T08:41:13.198Z,75744
2018-04-27T08:42:21.286Z,74432
2018-04-27T08:43:29.365Z,80896
2018-04-27T08:44:37.429Z,79552
2018-04-27T08:45:45.479Z,83712
2018-04-27T08:46:53.602Z,79264
2018-04-27T08:48:01.664Z,82016
2018-04-27T08:49:09.789Z,79168
2018-04-27T08:50:17.832Z,81280
2018-04-27T08:51:25.892Z,81024
2018-04-27T08:52:33.972Z,82240
2018-04-27T08:53:42.019Z,82176
2018-04-27T08:54:50.116Z,85696
2018-04-27T08:55:58.191Z,88096
2018-04-27T08:57:06.266Z,82880
2018-04-27T08:58:14.344Z,77472
2018-04-27T08:59:22.422Z,37920
2018-04-27T09:00:30.501Z,5524
2018-04-27T09:01:38.567Z,5368
2018-04-27T09:02:46.716Z,5368
2018-04-27T09:03:54.714Z,5200
2018-04-27T09:05:02.796Z,5128
2018-04-27T09:06:10.869Z,5040
2018-04-27T09:07:18.949Z,5028
2018-04-27T09:08:27.015Z,5028
2018-04-27T09:09:35.064Z,5012
2018-04-27T09:10:43.165Z,4920
2018-04-27T09:11:51.226Z,4884
2018-04-27T09:12:59.294Z,4860
2018-04-27T09:14:07.376Z,4768
2018-04-27T09:15:15.419Z,4704
2018-04-27T09:16:23.562Z,4716
2018-04-27T09:17:31.581Z,4760
2018-04-27T09:18:39.655Z,4784
2018-04-27T09:19:47.728Z,4820
2018-04-27T09:20:55.791Z,4864
2018-04-27T09:22:03.876Z,4896
2018-04-27T09:23:11.948Z,4928
2018-04-27T09:24:19.999Z,4908
2018-04-27T09:25:28.079Z,4868
2018-04-27T09:26:36.144Z,4800
2018-04-27T09:27:44.206Z,4740
2018-04-27T09:28:52.272Z,4680
2018-04-27T09:30:00.349Z,4636
2018-04-27T09:31:08.424Z,4624
2018-04-27T09:32:16.512Z,4624
2018-04-27T09:33:24.548Z,4620
2018-04-27T09:34:32.615Z,4584
2018-04-27T09:35:40.682Z,4600
2018-04-27T09:36:48.742Z,4580
2018-04-27T09:37:56.821Z,4564
2018-04-27T09:39:04.870Z,4544
2018-04-27T09:40:12.963Z,4512
2018-04-27T09:41:21.021Z,4492
2018-04-27T09:42:29.083Z,4472
2018-04-27T09:43:37.166Z,4472
2018-04-27T09:44:45.204Z,4472
2018-04-27T09:45:53.322Z,4508
2018-04-27T09:47:01.360Z,4544
2018-04-27T09:48:09.426Z,4560
2018-04-27T09:49:17.503Z,4568
2018-04-27T09:50:25.539Z,4544
2018-04-27T09:51:33.628Z,4548
2018-04-27T09:52:41.678Z,4520
2018-04-27T09:53:49.751Z,4520
2018-04-27T09:54:57.833Z,4556
2018-04-27T09:56:05.886Z,4572
2018-04-27T09:57:13.954Z,4576
2018-04-27T09:58:22.033Z,4560
2018-04-27T09:59:30.107Z,4520
2018-04-27T10:00:38.154Z,4480
2018-04-27T10:01:46.225Z,4440
2018-04-27T10:02:54.294Z,4456
2018-04-27T10:04:02.352Z,4472
2018-04-27T10:05:10.414Z,4460
2018-04-27T10:06:18.478Z,4452
2018-04-27T10:07:26.546Z,4436
2018-04-27T10:08:34.595Z,4440
2018-04-27T10:09:42.689Z,4440
2018-04-27T10:10:50.754Z,4396
2018-04-27T10:11:58.809Z,4364
2018-04-27T10:13:06.881Z,4360
2018-04-27T10:14:14.928Z,4388
2018-04-27T10:15:23.018Z,4392
2018-04-27T10:16:31.096Z,4388
2018-04-27T10:17:39.153Z,4376
2018-04-27T10:18:47.213Z,4364
2018-04-27T10:19:55.273Z,4356
2018-04-27T10:21:03.381Z,4360
2018-04-27T10:22:11.423Z,4372
2018-04-27T10:23:19.484Z,4368
2018-04-27T10:24:27.545Z,4360
2018-04-27T10:25:35.609Z,4356
2018-04-27T10:26:43.699Z,4340
2018-04-27T10:27:51.751Z,4336
2018-04-27T10:28:59.831Z,4316
2018-04-27T10:30:07.894Z,4316
2018-04-27T10:31:15.952Z,4292
2018-04-27T10:32:24.023Z,4256
2018-04-27T10:33:32.077Z,4244
2018-04-27T10:34:40.157Z,4244
2018-04-27T10:35:48.216Z,4244
2018-04-27T10:36:56.289Z,4256
2018-04-27T10:38:04.354Z,4272
2018-04-27T10:39:12.425Z,4260
2018-04-27T10:40:20.498Z,4260
2018-04-27T10:41:28.553Z,4236
2018-04-27T10:42:36.623Z,4220
2018-04-27T10:43:44.665Z,4200
2018-04-27T10:44:52.765Z,4192
2018-04-27T10:46:00.822Z,4180
2018-04-27T10:47:08.889Z,4160
2018-04-27T10:48:16.954Z,4152
2018-04-27T10:49:25.000Z,4144
2018-04-27T10:50:33.077Z,4132
2018-04-27T10:51:41.171Z,4124
2018-04-27T10:52:49.230Z,4116
2018-04-27T10:53:57.287Z,4104
2018-04-27T10:55:05.372Z,4100
2018-04-27T10:56:13.436Z,4100
2018-04-27T10:57:21.494Z,4108
2018-04-27T10:58:29.560Z,4116
2018-04-27T10:59:37.625Z,4140
2018-04-27T11:00:45.705Z,4112
2018-04-27T11:01:53.767Z,4076
2018-04-27T11:03:01.831Z,4060
2018-04-27T11:04:09.908Z,4032
2018-04-27T11:05:17.975Z,4020
2018-04-27T11:06:26.033Z,4012
2018-04-27T11:07:34.100Z,3972
2018-04-27T11:08:42.161Z,3960
2018-04-27T11:09:50.238Z,3940
2018-04-27T11:10:58.306Z,3924
2018-04-27T11:12:06.365Z,3920
2018-04-27T11:13:14.438Z,3920
2018-04-27T11:14:22.493Z,3936
2018-04-27T11:15:30.565Z,3936
2018-04-27T11:16:38.636Z,3936
2018-04-27T11:17:46.696Z,3948
2018-04-27T11:18:54.773Z,3944
2018-04-27T11:20:02.836Z,3936
2018-04-27T11:21:10.907Z,3924
2018-04-27T11:22:18.980Z,3900
2018-04-27T11:23:27.042Z,3880
2018-04-27T11:24:35.078Z,3852
2018-04-27T11:25:43.174Z,3824
2018-04-27T11:26:51.237Z,3800
2018-04-27T11:27:59.323Z,3792
2018-04-27T11:29:07.381Z,3792
2018-04-27T11:30:15.428Z,3788
2018-04-27T11:31:23.516Z,3788
2018-04-27T11:32:31.579Z,3776
2018-04-27T11:33:39.653Z,3756
2018-04-27T11:34:47.721Z,3724
2018-04-27T11:35:55.790Z,3688
2018-04-27T11:37:03.858Z,3676
2018-04-27T11:38:11.930Z,3648
2018-04-27T11:39:19.985Z,3636
2018-04-27T11:40:28.043Z,3628
2018-04-27T11:41:36.109Z,3624
2018-04-27T11:42:44.223Z,3620
2018-04-27T11:43:52.249Z,3612
2018-04-27T11:45:00.316Z,3620
2018-04-27T11:46:08.395Z,3624
2018-04-27T11:47:16.462Z,3628
2018-04-27T11:48:24.515Z,3628
2018-04-27T11:49:32.596Z,3620
2018-04-27T11:50:40.659Z,3616
2018-04-27T11:51:48.733Z,3620
2018-04-27T11:52:56.797Z,3600
2018-04-27T11:54:04.839Z,3588
2018-04-27T11:55:12.931Z,3572
2018-04-27T11:56:21.003Z,3572
2018-04-27T11:57:29.074Z,3568
2018-04-27T11:58:37.150Z,3556
2018-04-27T11:59:45.240Z,3556
2018-04-27T12:00:53.258Z,3536
2018-04-27T12:02:01.324Z,3520
2018-04-27T12:03:09.405Z,3504
2018-04-27T12:04:17.485Z,3500
2018-04-27T12:05:25.535Z,3500
2018-04-27T12:06:33.699Z,3484
2018-04-27T12:07:41.677Z,3472
2018-04-27T12:08:49.757Z,3456
2018-04-27T12:09:57.907Z,3424
2018-04-27T12:11:05.866Z,3368
2018-04-27T12:12:13.952Z,3412
2018-04-27T12:13:22.019Z,3416
2018-04-27T12:14:30.082Z,3416
2018-04-27T12:15:38.158Z,3400
2018-04-27T12:16:46.213Z,3380
2018-04-27T12:17:54.288Z,3388
2018-04-27T12:19:02.356Z,3380
2018-04-27T12:20:10.433Z,3380
2018-04-27T12:21:18.493Z,3384
2018-04-27T12:22:26.559Z,3384
2018-04-27T12:23:34.607Z,3372
2018-04-27T12:24:42.694Z,3364
2018-04-27T12:25:50.768Z,3356
2018-04-27T12:26:58.840Z,3352
2018-04-27T12:28:06.899Z,3352
2018-04-27T12:29:14.937Z,3336
2018-04-27T12:30:23.022Z,3324
2018-04-27T12:31:31.207Z,3312
2018-04-27T12:32:39.185Z,3308
2018-04-27T12:33:47.247Z,3300
2018-04-27T12:34:55.281Z,3296
2018-04-27T12:36:03.374Z,3288
2018-04-27T12:37:11.446Z,3268
2018-04-27T12:38:19.506Z,3256
2018-04-27T12:39:27.584Z,3240
2018-04-27T12:40:35.637Z,3228
2018-04-27T12:41:43.718Z,3220
2018-04-27T12:42:51.782Z,3216
2018-04-27T12:43:59.846Z,3204
2018-04-27T12:45:07.976Z,3200
2018-04-27T12:46:15.993Z,3212
2018-04-27T12:47:24.048Z,3216
2018-04-27T12:48:32.125Z,3204
2018-04-27T12:49:40.185Z,3212
2018-04-27T12:50:48.268Z,3216
2018-04-27T12:51:56.319Z,3212
2018-04-27T12:53:04.410Z,3212
2018-04-27T12:54:12.459Z,3200
2018-04-27T12:55:20.519Z,3196
2018-04-27T12:56:28.599Z,3200
2018-04-27T12:57:36.657Z,3200
2018-04-27T12:58:44.711Z,3196
2018-04-27T12:59:52.799Z,3196
2018-04-27T13:01:00.876Z,3196
2018-04-27T13:02:08.941Z,3192
2018-04-27T13:03:17.003Z,3188
2018-04-27T13:04:25.048Z,3184
2018-04-27T13:05:33.145Z,3180
2018-04-27T13:06:41.200Z,3172
2018-04-27T13:07:49.304Z,3144
2018-04-27T13:08:57.348Z,3124
2018-04-27T13:10:05.423Z,3132
2018-04-27T13:11:13.484Z,3128
2018-04-27T13:12:21.545Z,3128
2018-04-27T13:13:29.649Z,3148
2018-04-27T13:14:37.693Z,3156
2018-04-27T13:15:45.757Z,3144
2018-04-27T13:16:53.824Z,3132
2018-04-27T13:18:01.899Z,3124
2018-04-27T13:19:10.000Z,3108
2018-04-27T13:20:18.023Z,3100
2018-04-27T13:21:26.081Z,3076
2018-04-27T13:22:34.175Z,3072
2018-04-27T13:23:42.235Z,3084
2018-04-27T13:24:50.306Z,3088
2018-04-27T13:25:58.373Z,3072
2018-04-27T13:27:06.438Z,3048
2018-04-27T13:28:14.492Z,3040
2018-04-27T13:29:22.555Z,3040
2018-04-27T13:30:30.634Z,3032
2018-04-27T13:31:38.700Z,3048
2018-04-27T13:32:46.779Z,3044
2018-04-27T13:33:54.807Z,3060
2018-04-27T13:35:02.903Z,3060
2018-04-27T13:36:10.976Z,3056
2018-04-27T13:37:19.066Z,3056
2018-04-27T13:38:27.113Z,3092
2018-04-27T13:39:35.153Z,3096
2018-04-27T13:40:43.242Z,3080
2018-04-27T13:41:51.319Z,3076
2018-04-27T13:42:59.410Z,3068
2018-04-27T13:44:07.456Z,3068
2018-04-27T13:45:15.495Z,3064
2018-04-27T13:46:23.618Z,3064
2018-04-27T13:47:31.652Z,3052
2018-04-27T13:48:39.710Z,3052
2018-04-27T13:49:47.791Z,3044
2018-04-27T13:50:55.858Z,3052
2018-04-27T13:52:03.926Z,3068
2018-04-27T13:53:11.998Z,3076
2018-04-27T13:54:20.067Z,3088
2018-04-27T13:55:28.134Z,3084
2018-04-27T13:56:36.194Z,3092
2018-04-27T13:57:44.271Z,3088
2018-04-27T13:58:52.337Z,3076
2018-04-27T14:00:00.429Z,3080
2018-04-27T14:01:08.481Z,3072
2018-04-27T14:02:16.534Z,3076
2018-04-27T14:03:24.589Z,3116
2018-04-27T14:04:32.674Z,3072
2018-04-27T14:05:40.772Z,3052
2018-04-27T14:06:48.812Z,3076
2018-04-27T14:07:56.885Z,3072
2018-04-27T14:09:04.924Z,3052
2018-04-27T14:10:13.023Z,3056
2018-04-27T14:11:21.116Z,3048
2018-04-27T14:12:29.144Z,3052
2018-04-27T14:13:37.215Z,3052
2018-04-27T14:14:45.254Z,3048
2018-04-27T14:15:53.355Z,3048
2018-04-27T14:17:01.431Z,3028
2018-04-27T14:18:09.491Z,3004
2018-04-27T14:19:17.553Z,3004
2018-04-27T14:20:25.629Z,3012
2018-04-27T14:21:33.720Z,2996
2018-04-27T14:22:41.761Z,2984
2018-04-27T14:23:49.832Z,2972
2018-04-27T14:24:57.900Z,2976
2018-04-27T14:26:05.992Z,2968
2018-04-27T14:27:14.043Z,2964
2018-04-27T14:28:22.099Z,2956
2018-04-27T14:29:30.168Z,2956
2018-04-27T14:30:38.241Z,2956
2018-04-27T14:31:46.308Z,2952
2018-04-27T14:32:54.376Z,2944
2018-04-27T14:34:02.430Z,2948
2018-04-27T14:35:10.522Z,2960
2018-04-27T14:36:18.576Z,2960
2018-04-27T14:37:26.647Z,2960
2018-04-27T14:38:34.696Z,2956
2018-04-27T14:39:42.779Z,2960
2018-04-27T14:40:50.846Z,2948
2018-04-27T14:41:58.921Z,2932
2018-04-27T14:43:06.989Z,2928
2018-04-27T14:44:15.029Z,2936
2018-04-27T14:45:23.127Z,2940
2018-04-27T14:46:31.247Z,2932
2018-04-27T14:47:39.252Z,2932
2018-04-27T14:48:47.323Z,2936
2018-04-27T14:49:55.361Z,2968
2018-04-27T14:51:03.456Z,2992
2018-04-27T14:52:11.510Z,2992
2018-04-27T14:53:19.603Z,2988
2018-04-27T14:54:27.656Z,2980
2018-04-27T14:55:35.740Z,2976
2018-04-27T14:56:43.792Z,2976
2018-04-27T14:57:51.859Z,2956
2018-04-27T14:58:59.937Z,2944
2018-04-27T15:00:08.007Z,2936
2018-04-27T15:01:16.069Z,2924
2018-04-27T15:02:24.142Z,2920
2018-04-27T15:03:32.209Z,2916
2018-04-27T15:04:40.272Z,2912
2018-04-27T15:05:48.348Z,2912
2018-04-27T15:06:56.420Z,2920
2018-04-27T15:08:04.462Z,2920
2018-04-27T15:09:12.540Z,2908
2018-04-27T15:10:20.613Z,2896
2018-04-27T15:11:28.677Z,2876
2018-04-27T15:12:36.733Z,2864
2018-04-27T15:13:44.799Z,2860
2018-04-27T15:14:52.879Z,2852
2018-04-27T15:16:00.966Z,2848
2018-04-27T15:17:09.025Z,2848
2018-04-27T15:18:17.098Z,2844
2018-04-27T15:19:25.140Z,2836
2018-04-27T15:20:33.239Z,2832
2018-04-27T15:21:41.294Z,2820
2018-04-27T15:22:49.356Z,2800
2018-04-27T15:23:57.428Z,2804
2018-04-27T15:25:05.479Z,2796
2018-04-27T15:26:13.557Z,2792
2018-04-27T15:27:21.631Z,2788